createdAt,value
2018-11-02T00:03:56.346Z,72.89
2018-11-02T00:08:48.969Z,72.93
2018-11-02T00:13:41.735Z,72.81
2018-11-02T00:18:34.344Z,73.02
2018-11-02T00:23:26.960Z,73.07
2018-11-02T00:28:19.573Z,73.45
2018-11-02T00:33:12.182Z,73.68
2018-11-02T00:38:05.691Z,73.31
2018-11-02T00:42:58.332Z,73.29
2018-11-02T00:47:50.971Z,73.13
2018-11-02T00:52:43.649Z,73.39
2018-11-02T00:57:36.281Z,73.42
2018-11-02T01:02:35.678Z,72.93
2018-11-02T01:07:28.350Z,72.98
2018-11-02T01:12:21.007Z,73.11
2018-11-02T01:17:13.648Z,72.94
2018-11-02T01:22:09.085Z,73.01
2018-11-02T01:27:01.720Z,73.31
2018-11-02T01:31:54.788Z,73.10
2018-11-02T01:36:47.434Z,72.81
2018-11-02T01:41:40.145Z,72.81
2018-11-02T01:46:32.907Z,73.11
2018-11-02T01:51:25.547Z,73.02
2018-11-02T01:56:18.193Z,73.16
2018-11-02T02:01:10.885Z,72.99
2018-11-02T02:06:03.852Z,73.17
2018-11-02T02:10:56.461Z,73.42
2018-11-02T02:15:49.181Z,73.43
2018-11-02T02:20:41.957Z,73.38
2018-11-02T02:25:34.688Z,73.46
2018-11-02T02:30:27.311Z,73.71
2018-11-02T02:35:19.929Z,73.75
2018-11-02T02:40:12.791Z,73.66
2018-11-02T02:45:06.380Z,73.84
2018-11-02T02:49:59.033Z,73.67
2018-11-02T02:54:51.661Z,73.56
2018-11-02T02:59:44.252Z,73.68
2018-11-02T03:04:36.997Z,74.03
2018-11-02T03:09:29.602Z,74.01
2018-11-02T03:14:22.340Z,74.21
2018-11-02T03:19:14.977Z,74.25
2018-11-02T03:24:07.694Z,74.49
2018-11-02T03:29:00.361Z,74.69
2018-11-02T03:33:52.991Z,74.36
2018-11-02T03:38:45.649Z,74.22
2018-11-02T03:43:38.501Z,74.47
2018-11-02T03:48:31.143Z,74.53
2018-11-02T03:53:23.949Z,74.95
2018-11-02T03:58:16.749Z,74.17
2018-11-02T04:03:09.376Z,74.17
2018-11-02T04:08:02.045Z,74.35
2018-11-02T04:12:54.696Z,74.43
2018-11-02T04:17:47.321Z,74.60
2018-11-02T04:22:40.008Z,74.71
2018-11-02T04:27:32.695Z,74.61
2018-11-02T04:32:25.315Z,74.71
2018-11-02T04:37:17.961Z,74.84
2018-11-02T04:42:10.639Z,74.69
2018-11-02T04:47:03.333Z,74.65
2018-11-02T04:51:55.964Z,74.76
2018-11-02T04:56:48.614Z,74.51
2018-11-02T05:01:41.320Z,75.17
2018-11-02T05:06:34.012Z,74.66
2018-11-02T05:11:26.711Z,74.97
2018-11-02T05:16:19.481Z,74.86
2018-11-02T05:21:12.116Z,74.96
2018-11-02T05:26:05.142Z,75.12
2018-11-02T05:30:57.808Z,74.95
2018-11-02T05:35:50.448Z,74.94
2018-11-02T05:40:43.253Z,75.24
2018-11-02T05:45:35.929Z,75.04
2018-11-02T05:50:28.653Z,75.12
2018-11-02T05:55:21.357Z,74.98
2018-11-02T06:00:14.070Z,75.46
2018-11-02T06:05:06.823Z,75.34
2018-11-02T06:09:59.564Z,75.24
2018-11-02T06:14:52.247Z,75.38
2018-11-02T06:19:44.839Z,75.42
2018-11-02T06:24:37.658Z,75.58
2018-11-02T06:29:30.370Z,75.76
2018-11-02T06:34:24.381Z,75.63
2018-11-02T06:39:17.507Z,76.25
2018-11-02T06:44:10.615Z,75.69
2018-11-02T06:49:03.297Z,75.69
2018-11-02T06:53:55.910Z,75.36
2018-11-02T06:58:48.558Z,76.35
2018-11-02T07:03:41.185Z,76.02
2018-11-02T07:08:33.891Z,75.72
2018-11-02T07:13:26.549Z,75.89
2018-11-02T07:18:19.294Z,75.92
2018-11-02T07:23:11.882Z,75.87
2018-11-02T07:28:05.458Z,75.98
2018-11-02T07:32:58.143Z,75.77
2018-11-02T07:37:50.839Z,75.61
2018-11-02T07:42:43.503Z,75.10
2018-11-02T07:47:36.244Z,74.95
2018-11-02T07:52:28.902Z,74.57
2018-11-02T07:57:21.550Z,73.86
2018-11-02T08:02:14.173Z,73.68
2018-11-02T08:07:07.091Z,73.29
2018-11-02T08:11:59.739Z,73.08
2018-11-02T08:16:52.473Z,72.53
2018-11-02T08:21:45.090Z,72.33
2018-11-02T08:26:37.897Z,71.11
2018-11-02T08:31:30.534Z,71.07
2018-11-02T08:36:23.134Z,71.18
2018-11-02T08:41:15.798Z,70.15
2018-11-02T08:46:08.483Z,69.63
2018-11-02T08:51:01.174Z,69.30
2018-11-02T08:55:53.837Z,68.95
2018-11-02T09:00:46.494Z,69.76
2018-11-02T09:05:39.281Z,69.17
2018-11-02T09:10:32.134Z,69.10
2018-11-02T09:15:24.772Z,68.47
2018-11-02T09:20:17.453Z,68.23
2018-11-02T09:25:10.171Z,68.22
2018-11-02T09:30:02.934Z,67.56
2018-11-02T09:34:55.550Z,67.73
2018-11-02T09:39:48.247Z,67.54
2018-11-02T09:44:41.104Z,67.94
2018-11-02T09:49:33.869Z,68.11
2018-11-02T09:54:26.508Z,67.24
2018-11-02T09:59:19.287Z,67.82
2018-11-02T10:04:12.118Z,67.88
2018-11-02T10:09:08.168Z,67.23
2018-11-02T10:14:00.895Z,67.16
2018-11-02T10:18:53.642Z,66.76
2018-11-02T10:23:46.374Z,66.86
2018-11-02T10:28:39.044Z,66.21
2018-11-02T10:33:31.862Z,66.05
2018-11-02T10:38:24.605Z,65.47
2018-11-02T10:43:18.072Z,64.73
2018-11-02T10:48:10.781Z,63.87
2018-11-02T10:53:03.647Z,62.80
2018-11-02T10:57:56.426Z,62.33
2018-11-02T11:02:49.149Z,61.28
2018-11-02T11:07:41.981Z,61.52
2018-11-02T11:12:34.824Z,60.79
2018-11-02T11:17:27.294Z,60.74
2018-11-02T11:22:19.951Z,59.03
2018-11-02T11:27:12.676Z,59.37
2018-11-02T11:32:05.599Z,59.88
2018-11-02T11:36:58.280Z,58.01
2018-11-02T11:41:50.955Z,57.61
2018-11-02T11:46:43.598Z,57.13
2018-11-02T11:51:36.294Z,56.46
2018-11-02T11:56:29.057Z,56.04
2018-11-02T12:01:21.801Z,56.17
2018-11-02T12:06:14.625Z,55.33
2018-11-02T12:11:07.301Z,55.20
2018-11-02T12:15:59.965Z,55.22
2018-11-02T12:20:52.530Z,53.99
2018-11-02T12:25:45.213Z,53.97
2018-11-02T12:30:37.912Z,53.88
2018-11-02T12:35:30.706Z,53.29
2018-11-02T12:40:23.886Z,54.23
2018-11-02T12:45:17.721Z,53.71
2018-11-02T12:50:16.970Z,53.41
2018-11-02T12:55:10.175Z,52.81
2018-11-02T13:00:02.961Z,52.83
2018-11-02T13:04:55.614Z,52.29
2018-11-02T13:09:48.282Z,52.17
2018-11-02T13:14:40.901Z,52.04
2018-11-02T13:19:33.602Z,52.20
2018-11-02T13:24:26.284Z,51.62
2018-11-02T13:29:18.966Z,52.00
2018-11-02T13:34:11.654Z,51.60
2018-11-02T13:39:08.501Z,51.79
2018-11-02T13:44:01.216Z,51.69
2018-11-02T13:48:53.914Z,52.38
2018-11-02T13:53:46.822Z,52.66
2018-11-02T13:58:39.553Z,52.26
2018-11-02T14:03:32.218Z,53.01
2018-11-02T14:08:24.878Z,53.15
2018-11-02T14:13:17.801Z,52.42
2018-11-02T14:18:10.499Z,52.24
2018-11-02T14:23:03.384Z,51.98
2018-11-02T14:27:56.049Z,52.13
2018-11-02T14:32:48.913Z,52.70
2018-11-02T14:37:41.545Z,52.56
2018-11-02T14:42:34.309Z,52.68
2018-11-02T14:47:27.095Z,53.32
2018-11-02T14:52:19.917Z,53.33
2018-11-02T14:57:12.515Z,52.95
2018-11-02T15:02:05.314Z,52.92
2018-11-02T15:06:57.970Z,53.54
2018-11-02T15:11:50.746Z,54.01
2018-11-02T15:16:43.496Z,53.61
2018-11-02T15:21:36.302Z,53.88
2018-11-02T15:26:29.048Z,54.22
2018-11-02T15:31:21.663Z,53.98
2018-11-02T15:36:14.248Z,54.73
2018-11-02T15:41:06.969Z,55.10
2018-11-02T15:45:59.682Z,54.54
2018-11-02T15:50:52.324Z,55.29
2018-11-02T15:55:44.932Z,55.38
2018-11-02T16:00:37.554Z,55.66
2018-11-02T16:05:30.258Z,56.21
2018-11-02T16:10:22.874Z,56.65
2018-11-02T16:15:15.527Z,56.98
2018-11-02T16:20:10.831Z,56.94
2018-11-02T16:25:03.570Z,57.05
2018-11-02T16:29:56.211Z,57.75
2018-11-02T16:34:48.825Z,58.01
2018-11-02T16:39:41.882Z,58.44
2018-11-02T16:44:34.574Z,58.67
2018-11-02T16:49:27.205Z,58.90
2018-11-02T16:54:19.856Z,58.83
2018-11-02T16:59:12.609Z,58.55
2018-11-02T17:04:05.182Z,58.71
2018-11-02T17:08:57.788Z,58.74
2018-11-02T17:13:50.491Z,58.79
2018-11-02T17:18:43.236Z,58.71
2018-11-02T17:23:35.864Z,58.78
2018-11-02T17:28:28.497Z,59.53
2018-11-02T17:33:21.652Z,59.24
2018-11-02T17:38:14.369Z,60.26
2018-11-02T17:43:07.072Z,60.14
2018-11-02T17:47:59.717Z,60.56
2018-11-02T17:52:52.333Z,61.33
2018-11-02T17:57:44.893Z,61.29
2018-11-02T18:02:37.493Z,61.72
2018-11-02T18:07:30.146Z,62.07
2018-11-02T18:12:22.880Z,62.20
2018-11-02T18:17:15.789Z,62.45
2018-11-02T18:22:08.517Z,62.42
2018-11-02T18:27:01.389Z,62.46
2018-11-02T18:31:54.082Z,62.61
2018-11-02T18:36:46.796Z,63.13
2018-11-02T18:41:39.708Z,63.83
2018-11-02T18:46:32.340Z,63.75
2018-11-02T18:51:24.974Z,63.99
2018-11-02T18:56:17.729Z,63.37
2018-11-02T19:01:10.381Z,63.69
2018-11-02T19:06:03.015Z,64.52
2018-11-02T19:10:55.674Z,64.52
2018-11-02T19:15:48.468Z,64.81
2018-11-02T19:20:41.024Z,65.11
2018-11-02T19:25:33.688Z,65.13
2018-11-02T19:30:26.362Z,65.36
2018-11-02T19:35:19.136Z,65.94
2018-11-02T19:40:12.970Z,65.80
2018-11-02T19:45:06.648Z,65.92
2018-11-02T19:49:59.265Z,66.48
2018-11-02T19:54:52.668Z,66.37
2018-11-02T19:59:47.010Z,66.72
2018-11-02T20:04:40.244Z,66.84
2018-11-02T20:09:33.536Z,67.28
2018-11-02T20:14:27.226Z,67.51
2018-11-02T20:19:20.343Z,67.93
2018-11-02T20:24:13.529Z,67.67
2018-11-02T20:29:10.639Z,68.10
2018-11-02T20:34:06.150Z,68.06
2018-11-02T20:38:59.525Z,68.16
2018-11-02T20:43:52.731Z,68.17
2018-11-02T20:48:45.866Z,68.24
2018-11-02T20:53:38.948Z,68.48
2018-11-02T20:58:32.072Z,68.71
2018-11-02T21:03:25.807Z,69.11
2018-11-02T21:08:18.932Z,69.15
2018-11-02T21:13:11.884Z,69.08
2018-11-02T21:18:05.726Z,68.76
2018-11-02T21:22:59.642Z,68.85
2018-11-02T21:27:52.652Z,69.24
2018-11-02T21:32:56.538Z,69.33
2018-11-02T21:37:49.828Z,69.50
2018-11-02T21:42:42.818Z,70.07
2018-11-02T21:47:35.888Z,69.80
2018-11-02T21:52:28.855Z,69.66
2018-11-02T21:57:21.758Z,70.11
2018-11-02T22:02:15.520Z,70.19
2018-11-02T22:07:08.245Z,70.44
2018-11-02T22:12:00.934Z,70.43
2018-11-02T22:16:53.905Z,70.85
2018-11-02T22:21:46.753Z,70.64
2018-11-02T22:26:39.501Z,70.83
2018-11-02T22:31:32.183Z,71.06
2018-11-02T22:36:24.927Z,70.89
2018-11-02T22:41:17.614Z,71.14
2018-11-02T22:46:10.535Z,71.21
2018-11-02T22:51:03.215Z,71.30
2018-11-02T22:55:55.807Z,71.51
2018-11-02T23:00:54.407Z,71.98
2018-11-02T23:05:47.125Z,71.71
2018-11-02T23:10:39.718Z,71.82
2018-11-02T23:15:32.375Z,72.02
2018-11-02T23:20:25.089Z,72.13
2018-11-02T23:25:17.773Z,72.26
2018-11-02T23:30:10.820Z,72.74
2018-11-02T23:35:03.407Z,72.60
2018-11-02T23:39:56.130Z,72.78
2018-11-02T23:44:48.957Z,72.57
2018-11-02T23:49:41.555Z,72.85
2018-11-02T23:54:34.280Z,72.79
2018-11-02T23:59:26.974Z,73.16
